Sheddsville, Vermont
Current Conditions -  °F | °C
As of 3:54 PM on Friday 24 Oct 2014 (Local Time) from KVSF Reporting Station
Overcast Overcast  
Wind Chill: 46°   Ceiling: 2500
Heat Index: 48°   Visibility: 10mi
Dew Point: 40°   Wind: 5mph
Humidity: 74%   Direction: 290°WNW
Pressure: 29.75"   Gusts: NA
Location:  43.4897°N, 72.4482°W
Report Text: KVSF 241954Z AUTO 29004KT 10SM OVC025 09/04 A2975 RMK AO2 SLP077 T00890044
Loading
Personal Weather Stations






























Interactive Weather Map
Tropical Storm Tracking
New forecast layout! Learn more

10-Day Weather Forecast

Advertisements
Track Severe Weather on mobile